createdAt,value
2018-12-29T00:01:34.889Z,92.60
2018-12-29T00:04:23.737Z,92.20
2018-12-29T00:07:11.355Z,92.10
2018-12-29T00:09:59.158Z,92.00
2018-12-29T00:12:48.147Z,91.90
2018-12-29T00:15:35.775Z,92.00
2018-12-29T00:18:23.357Z,91.90
2018-12-29T00:21:11.492Z,92.00
2018-12-29T00:23:59.051Z,92.20
2018-12-29T00:26:46.786Z,92.60
2018-12-29T00:29:34.430Z,92.60
2018-12-29T00:32:22.276Z,92.60
2018-12-29T00:35:09.936Z,92.60
2018-12-29T00:37:57.634Z,92.60
2018-12-29T00:40:45.525Z,92.70
2018-12-29T00:43:33.512Z,92.60
2018-12-29T00:46:21.107Z,92.50
2018-12-29T00:49:08.425Z,92.30
2018-12-29T00:51:56.239Z,92.30
2018-12-29T00:54:43.980Z,92.40
2018-12-29T00:57:31.785Z,92.30
2018-12-29T01:00:19.701Z,92.20
2018-12-29T01:03:07.465Z,92.50
2018-12-29T01:05:55.346Z,92.40
2018-12-29T01:08:43.249Z,92.40
2018-12-29T01:11:31.496Z,92.30
2018-12-29T01:14:19.235Z,92.50
2018-12-29T01:17:07.198Z,92.30
2018-12-29T01:19:54.860Z,92.40
2018-12-29T01:22:42.617Z,92.40
2018-12-29T01:25:30.186Z,92.50
2018-12-29T01:28:17.936Z,92.90
2018-12-29T01:31:05.920Z,93.30
2018-12-29T01:33:53.938Z,93.40
2018-12-29T01:36:41.690Z,93.30
2018-12-29T01:39:29.459Z,92.50
2018-12-29T01:42:16.986Z,92.40
2018-12-29T01:45:04.973Z,92.40
2018-12-29T01:47:52.918Z,92.40
2018-12-29T01:50:40.873Z,92.40
2018-12-29T01:53:28.638Z,92.40
2018-12-29T01:56:16.628Z,92.40
2018-12-29T01:59:04.247Z,92.30
2018-12-29T02:01:52.000Z,92.20
2018-12-29T02:04:39.850Z,92.20
2018-12-29T02:07:27.720Z,92.30
2018-12-29T02:10:15.816Z,92.30
2018-12-29T02:13:04.716Z,92.30
2018-12-29T02:15:52.629Z,92.10
2018-12-29T02:18:40.373Z,92.20
2018-12-29T02:21:28.680Z,91.90
2018-12-29T02:24:16.221Z,92.20
2018-12-29T02:27:03.598Z,92.20
2018-12-29T02:29:51.331Z,92.20
2018-12-29T02:32:39.073Z,92.10
2018-12-29T02:35:27.112Z,92.20
2018-12-29T02:38:15.067Z,92.10
2018-12-29T02:41:02.595Z,92.30
2018-12-29T02:43:50.433Z,92.30
2018-12-29T02:46:38.151Z,92.50
2018-12-29T02:49:25.854Z,92.40
2018-12-29T02:52:13.716Z,92.10
2018-12-29T02:55:01.519Z,92.00
2018-12-29T02:57:49.149Z,92.00
2018-12-29T03:00:36.761Z,91.90
2018-12-29T03:03:25.858Z,91.90
2018-12-29T03:06:14.013Z,92.00
2018-12-29T03:09:01.774Z,92.10
2018-12-29T03:11:50.214Z,92.10
2018-12-29T03:14:37.730Z,92.40
2018-12-29T03:17:25.832Z,92.40
2018-12-29T03:20:13.724Z,92.50
2018-12-29T03:23:01.554Z,92.70
2018-12-29T03:25:49.619Z,92.90
2018-12-29T03:28:36.961Z,93.10
2018-12-29T03:31:24.931Z,93.00
2018-12-29T03:34:12.894Z,93.40
2018-12-29T03:37:00.922Z,93.30
2018-12-29T03:39:48.601Z,93.10
2018-12-29T03:42:36.341Z,93.00
2018-12-29T03:45:24.109Z,93.00
2018-12-29T03:48:12.246Z,93.00
2018-12-29T03:51:00.228Z,92.90
2018-12-29T03:53:47.869Z,92.90
2018-12-29T03:56:37.847Z,93.20
2018-12-29T03:59:25.849Z,93.10
2018-12-29T04:02:13.823Z,93.30
2018-12-29T04:05:01.637Z,93.30
2018-12-29T04:07:49.610Z,93.30
2018-12-29T04:10:37.401Z,93.60
2018-12-29T04:13:25.151Z,93.90
2018-12-29T04:16:13.323Z,93.70
2018-12-29T04:19:01.368Z,93.50
2018-12-29T04:21:49.262Z,93.40
2018-12-29T04:24:38.306Z,93.50
2018-12-29T04:27:26.187Z,93.60
2018-12-29T04:30:14.005Z,93.40
2018-12-29T04:33:01.873Z,93.20
2018-12-29T04:35:49.582Z,93.10
2018-12-29T04:38:37.354Z,93.20
2018-12-29T04:41:25.069Z,93.40
2018-12-29T04:44:13.289Z,93.60
2018-12-29T04:47:01.163Z,93.70
2018-12-29T04:49:49.112Z,93.70
2018-12-29T04:52:37.208Z,93.80
2018-12-29T04:55:25.268Z,93.80
2018-12-29T04:58:13.178Z,93.80
2018-12-29T05:01:01.082Z,93.90
2018-12-29T05:03:48.855Z,93.90
2018-12-29T05:06:36.233Z,94.10
2018-12-29T05:09:24.226Z,94.10
2018-12-29T05:12:11.930Z,94.00
2018-12-29T05:14:59.879Z,93.80
2018-12-29T05:17:48.027Z,93.80
2018-12-29T05:20:35.651Z,93.90
2018-12-29T05:23:23.481Z,94.10
2018-12-29T05:26:11.569Z,94.20
2018-12-29T05:28:59.759Z,94.20
2018-12-29T05:31:47.076Z,94.20
2018-12-29T05:34:34.840Z,94.30
2018-12-29T05:37:22.862Z,94.20
2018-12-29T05:40:11.179Z,94.10
2018-12-29T05:42:58.912Z,93.90
2018-12-29T05:45:47.009Z,93.80
2018-12-29T05:48:34.904Z,94.00
2018-12-29T05:51:22.795Z,94.10
2018-12-29T05:54:10.467Z,94.70
2018-12-29T05:56:58.125Z,95.50
2018-12-29T05:59:46.147Z,95.60
2018-12-29T06:02:34.152Z,95.80
2018-12-29T06:05:21.762Z,95.80
2018-12-29T06:08:10.140Z,95.90
2018-12-29T06:10:57.912Z,95.80
2018-12-29T06:13:45.803Z,95.60
2018-12-29T06:16:33.228Z,95.60
2018-12-29T06:19:21.253Z,95.60
2018-12-29T06:22:09.129Z,95.60
2018-12-29T06:24:56.841Z,95.60
2018-12-29T06:27:44.692Z,95.80
2018-12-29T06:30:32.609Z,96.00
2018-12-29T06:33:20.423Z,96.10
2018-12-29T06:36:08.465Z,96.20
2018-12-29T06:38:56.311Z,96.10
2018-12-29T06:41:43.787Z,96.20
2018-12-29T06:44:31.198Z,96.20
2018-12-29T06:47:18.789Z,96.20
2018-12-29T06:50:06.890Z,96.20
2018-12-29T06:52:54.248Z,96.20
2018-12-29T06:55:42.501Z,96.30
2018-12-29T06:58:30.268Z,96.20
2018-12-29T07:01:17.943Z,96.40
2018-12-29T07:04:05.633Z,96.30
2018-12-29T07:06:53.895Z,96.20
2018-12-29T07:09:41.476Z,96.10
2018-12-29T07:12:29.307Z,96.00
2018-12-29T07:15:17.012Z,96.10
2018-12-29T07:18:04.782Z,96.20
2018-12-29T07:20:52.805Z,96.20
2018-12-29T07:23:40.426Z,96.20
2018-12-29T07:26:27.848Z,96.20
2018-12-29T07:29:15.809Z,96.20
2018-12-29T07:32:03.411Z,96.30
2018-12-29T07:34:50.873Z,96.20
2018-12-29T07:37:38.706Z,96.30
2018-12-29T07:40:26.096Z,96.40
2018-12-29T07:43:14.582Z,96.30
2018-12-29T07:46:02.499Z,96.50
2018-12-29T07:48:50.255Z,96.50
2018-12-29T07:51:38.203Z,96.50
2018-12-29T07:54:25.750Z,96.60
2018-12-29T07:57:13.449Z,96.70
2018-12-29T08:00:01.252Z,96.70
2018-12-29T08:02:49.695Z,96.60
2018-12-29T08:05:37.580Z,96.50
2018-12-29T08:08:25.311Z,96.50
2018-12-29T08:11:13.099Z,96.50
2018-12-29T08:14:00.861Z,96.50
2018-12-29T08:16:48.779Z,96.60
2018-12-29T08:19:36.838Z,96.70
2018-12-29T08:22:24.889Z,96.90
2018-12-29T08:25:12.423Z,97.00
2018-12-29T08:28:00.141Z,96.90
2018-12-29T08:30:48.207Z,96.90
2018-12-29T08:33:36.211Z,96.90
2018-12-29T08:36:24.278Z,97.20
2018-12-29T08:39:11.799Z,97.40
2018-12-29T08:41:59.473Z,97.30
2018-12-29T08:44:47.108Z,97.20
2018-12-29T08:47:34.733Z,97.20
2018-12-29T08:50:22.107Z,97.30
2018-12-29T08:53:10.130Z,97.20
2018-12-29T08:55:57.964Z,97.00
2018-12-29T08:58:45.672Z,97.00
2018-12-29T09:01:33.530Z,97.00
2018-12-29T09:04:21.291Z,97.30
2018-12-29T09:07:08.972Z,97.30
2018-12-29T09:09:58.000Z,97.50
2018-12-29T09:12:46.114Z,97.50
2018-12-29T09:15:34.335Z,97.30
2018-12-29T09:18:22.273Z,97.30
2018-12-29T09:21:09.860Z,97.00
2018-12-29T09:23:57.227Z,97.00
2018-12-29T09:26:44.652Z,96.90
2018-12-29T09:29:32.370Z,96.80
2018-12-29T09:32:20.290Z,97.00
2018-12-29T09:35:08.317Z,97.00
2018-12-29T09:37:56.091Z,96.90
2018-12-29T09:40:43.982Z,96.70
2018-12-29T09:43:31.944Z,96.80
2018-12-29T09:46:19.916Z,96.60
2018-12-29T09:49:07.663Z,96.60
2018-12-29T09:51:55.401Z,96.60
2018-12-29T09:54:43.208Z,96.60
2018-12-29T09:57:30.872Z,96.60
2018-12-29T10:00:18.673Z,96.70
2018-12-29T10:03:06.159Z,96.80
2018-12-29T10:05:54.662Z,96.70
2018-12-29T10:08:42.675Z,96.80
2018-12-29T10:11:30.617Z,96.80
2018-12-29T10:14:17.615Z,96.60
2018-12-29T10:17:05.305Z,96.80
2018-12-29T10:19:53.327Z,96.90
2018-12-29T10:22:40.856Z,97.00
2018-12-29T10:25:28.505Z,97.00
2018-12-29T10:28:15.867Z,97.30
2018-12-29T10:31:03.921Z,97.10
2018-12-29T10:33:51.485Z,97.00
2018-12-29T10:36:39.528Z,97.00
2018-12-29T10:39:27.511Z,97.10
2018-12-29T10:42:15.484Z,97.00
2018-12-29T10:45:03.551Z,97.00
2018-12-29T10:47:51.481Z,96.80
2018-12-29T10:50:39.367Z,96.70
2018-12-29T10:53:27.656Z,96.70
2018-12-29T10:56:19.892Z,96.80
2018-12-29T10:59:08.273Z,96.90
2018-12-29T11:01:59.264Z,96.90
2018-12-29T11:04:50.057Z,96.50
2018-12-29T11:07:38.395Z,96.50
2018-12-29T11:10:26.858Z,96.70
2018-12-29T11:13:15.123Z,96.50
2018-12-29T11:16:03.338Z,96.50
2018-12-29T11:18:56.178Z,96.80
2018-12-29T11:21:44.449Z,96.90
2018-12-29T11:24:32.316Z,96.60
2018-12-29T11:27:20.056Z,96.30
2018-12-29T11:30:09.619Z,95.80
2018-12-29T11:32:58.791Z,95.70
2018-12-29T11:35:47.479Z,95.80
2018-12-29T11:38:35.746Z,95.70
2018-12-29T11:41:24.192Z,95.70
2018-12-29T11:44:12.059Z,95.70
2018-12-29T11:46:59.881Z,95.50
2018-12-29T11:49:47.573Z,95.30
2018-12-29T11:52:35.395Z,95.20
2018-12-29T11:55:22.993Z,94.80
2018-12-29T11:58:10.935Z,94.50
2018-12-29T12:00:58.725Z,94.40
2018-12-29T12:03:46.782Z,94.30
2018-12-29T12:06:34.700Z,94.40
2018-12-29T12:09:22.133Z,94.40
2018-12-29T12:12:09.931Z,95.00
2018-12-29T12:14:58.910Z,94.90
2018-12-29T12:17:46.863Z,94.70
2018-12-29T12:20:34.657Z,94.40
2018-12-29T12:23:22.407Z,94.30
2018-12-29T12:26:10.391Z,94.40
2018-12-29T12:28:59.005Z,94.40
2018-12-29T12:31:48.875Z,94.40
2018-12-29T12:34:36.937Z,94.50
2018-12-29T12:37:25.174Z,94.10
2018-12-29T12:40:14.249Z,94.00
2018-12-29T12:43:02.763Z,94.40
2018-12-29T12:45:50.511Z,94.10
2018-12-29T12:48:38.340Z,94.00
2018-12-29T12:51:26.540Z,94.30
2018-12-29T12:54:14.550Z,93.90
2018-12-29T12:57:02.483Z,93.70
2018-12-29T12:59:50.434Z,93.60
2018-12-29T13:02:38.461Z,93.60
2018-12-29T13:05:26.564Z,93.40
2018-12-29T13:08:14.078Z,93.50
2018-12-29T13:11:01.808Z,93.00
2018-12-29T13:13:49.741Z,92.70
2018-12-29T13:16:38.776Z,93.00
2018-12-29T13:19:28.666Z,92.80
2018-12-29T13:22:18.323Z,92.60
2018-12-29T13:25:08.099Z,92.80
2018-12-29T13:28:00.829Z,92.70
2018-12-29T13:30:52.238Z,92.80
2018-12-29T13:33:44.281Z,92.60
2018-12-29T13:36:32.734Z,92.90
2018-12-29T13:39:26.072Z,92.60
2018-12-29T13:42:14.236Z,91.90
2018-12-29T13:45:05.404Z,92.30
2018-12-29T13:47:53.509Z,92.10
2018-12-29T13:50:42.092Z,91.80
2018-12-29T13:53:30.338Z,92.00
2018-12-29T13:56:18.821Z,91.60
2018-12-29T13:59:07.217Z,91.10
2018-12-29T14:01:55.786Z,91.30
2018-12-29T14:04:44.197Z,91.30
2018-12-29T14:07:32.403Z,91.40
2018-12-29T14:10:20.341Z,91.10
2018-12-29T14:13:08.218Z,90.70
2018-12-29T14:15:56.572Z,90.60
2018-12-29T14:18:44.774Z,90.40
2018-12-29T14:21:32.545Z,90.60
2018-12-29T14:24:29.062Z,90.80
2018-12-29T14:27:18.743Z,91.00
2018-12-29T14:30:07.615Z,91.00
2018-12-29T14:32:57.559Z,91.20
2018-12-29T14:35:48.530Z,91.10
2018-12-29T14:38:36.822Z,90.80
2018-12-29T14:41:32.238Z,91.00
2018-12-29T14:44:20.931Z,90.80
2018-12-29T14:47:12.050Z,90.80
2018-12-29T14:50:03.872Z,90.80
2018-12-29T14:52:53.475Z,90.60
2018-12-29T14:55:41.550Z,90.50
2018-12-29T14:58:37.402Z,90.40
2018-12-29T15:01:25.670Z,90.30
2018-12-29T15:04:14.593Z,90.20
2018-12-29T15:07:03.085Z,90.20
2018-12-29T15:10:00.396Z,90.20
2018-12-29T15:12:48.811Z,90.50
2018-12-29T15:15:36.966Z,90.80
2018-12-29T15:18:27.924Z,90.80
2018-12-29T15:21:22.773Z,90.80
2018-12-29T15:24:13.123Z,90.80
2018-12-29T15:27:01.189Z,90.80
2018-12-29T15:29:49.897Z,90.80
2018-12-29T15:32:38.111Z,90.70
2018-12-29T15:35:28.435Z,90.80
2018-12-29T15:38:19.308Z,91.00
2018-12-29T15:41:10.104Z,91.20
2018-12-29T15:44:00.472Z,91.30
2018-12-29T15:46:51.974Z,91.30
2018-12-29T15:49:42.045Z,91.30
2018-12-29T15:52:33.628Z,91.40
2018-12-29T15:55:21.289Z,91.60
2018-12-29T15:58:09.176Z,92.00
2018-12-29T16:01:00.847Z,92.20
2018-12-29T16:03:48.961Z,92.10
2018-12-29T16:06:39.901Z,92.20
2018-12-29T16:09:27.521Z,92.30
2018-12-29T16:12:18.103Z,92.50
2018-12-29T16:15:06.170Z,92.70
2018-12-29T16:17:54.540Z,92.80
2018-12-29T16:20:42.296Z,92.80
2018-12-29T16:23:31.048Z,92.90
2018-12-29T16:26:19.165Z,93.00
2018-12-29T16:29:07.139Z,93.10
2018-12-29T16:31:59.342Z,93.10
2018-12-29T16:34:55.360Z,93.20
2018-12-29T16:37:45.354Z,93.20
2018-12-29T16:40:33.759Z,93.30
2018-12-29T16:43:21.599Z,93.60
2018-12-29T16:46:09.302Z,93.70
2018-12-29T16:48:56.995Z,93.60
2018-12-29T16:51:45.043Z,93.50
2018-12-29T16:54:32.934Z,93.40
2018-12-29T16:57:20.659Z,93.40
2018-12-29T17:00:08.415Z,93.40
2018-12-29T17:02:56.387Z,93.40
2018-12-29T17:05:44.242Z,93.50
2018-12-29T17:08:32.209Z,93.60
2018-12-29T17:11:19.693Z,93.60
2018-12-29T17:14:07.477Z,93.80
2018-12-29T17:16:55.458Z,93.90
2018-12-29T17:19:43.253Z,94.00
2018-12-29T17:22:31.023Z,94.00
2018-12-29T17:25:18.851Z,93.90
2018-12-29T17:28:06.656Z,94.00
2018-12-29T17:30:54.374Z,94.00
2018-12-29T17:33:42.469Z,94.10
2018-12-29T17:36:30.294Z,94.20
2018-12-29T17:39:17.847Z,94.50
2018-12-29T17:42:05.415Z,94.70
2018-12-29T17:44:53.231Z,94.70
2018-12-29T17:47:41.171Z,94.60
2018-12-29T17:50:28.607Z,94.50
2018-12-29T17:53:16.291Z,94.40
2018-12-29T17:56:04.256Z,94.40
2018-12-29T17:58:52.090Z,94.40
2018-12-29T18:01:39.694Z,94.40
2018-12-29T18:04:27.419Z,94.40
2018-12-29T18:07:14.961Z,94.30
2018-12-29T18:10:02.539Z,94.40
2018-12-29T18:12:50.287Z,94.40
2018-12-29T18:15:38.334Z,94.50
2018-12-29T18:18:25.932Z,94.40
2018-12-29T18:21:13.882Z,94.40
2018-12-29T18:24:01.623Z,94.40
2018-12-29T18:26:49.279Z,94.30
2018-12-29T18:29:36.868Z,94.20
2018-12-29T18:32:25.385Z,94.20
2018-12-29T18:35:13.671Z,94.10
2018-12-29T18:38:01.580Z,94.10
2018-12-29T18:40:49.545Z,94.10
2018-12-29T18:43:37.354Z,94.00
2018-12-29T18:46:25.104Z,94.10
2018-12-29T18:49:13.263Z,94.10
2018-12-29T18:52:00.943Z,94.10
2018-12-29T18:54:48.784Z,94.10
2018-12-29T18:57:37.083Z,94.00
2018-12-29T19:00:24.895Z,94.10
2018-12-29T19:03:13.087Z,94.00
2018-12-29T19:06:01.117Z,94.00
2018-12-29T19:08:49.499Z,94.10
2018-12-29T19:11:37.536Z,94.20
2018-12-29T19:14:25.838Z,94.10
2018-12-29T19:17:14.304Z,94.30
2018-12-29T19:20:02.080Z,94.40
2018-12-29T19:22:50.183Z,94.20
2018-12-29T19:25:38.165Z,94.40
2018-12-29T19:28:26.481Z,94.40
2018-12-29T19:31:14.405Z,94.10
2018-12-29T19:34:02.128Z,94.10
2018-12-29T19:36:50.155Z,94.10
2018-12-29T19:39:38.098Z,93.90
2018-12-29T19:42:25.800Z,93.90
2018-12-29T19:45:13.771Z,94.00
2018-12-29T19:48:01.880Z,93.90
2018-12-29T19:50:50.063Z,93.90
2018-12-29T19:53:38.159Z,94.10
2018-12-29T19:56:26.233Z,94.30
2018-12-29T19:59:14.398Z,94.30
2018-12-29T20:02:02.329Z,94.30
2018-12-29T20:04:50.016Z,94.40
2018-12-29T20:07:38.328Z,94.40
2018-12-29T20:10:25.834Z,94.30
2018-12-29T20:13:13.121Z,94.30
2018-12-29T20:16:00.954Z,94.30
2018-12-29T20:18:48.720Z,94.40
2018-12-29T20:21:36.770Z,94.50
2018-12-29T20:24:24.515Z,94.40
2018-12-29T20:27:12.376Z,94.50
2018-12-29T20:30:00.251Z,94.50
2018-12-29T20:32:48.292Z,94.40
2018-12-29T20:35:35.739Z,94.40
2018-12-29T20:38:23.700Z,94.30
2018-12-29T20:41:11.553Z,94.20
2018-12-29T20:43:59.163Z,94.30
2018-12-29T20:46:46.972Z,94.40
2018-12-29T20:49:35.375Z,94.50
2018-12-29T20:52:23.274Z,94.60
2018-12-29T20:55:11.462Z,94.60
2018-12-29T20:57:59.254Z,94.60
2018-12-29T21:00:47.412Z,94.70
2018-12-29T21:03:35.272Z,94.60
2018-12-29T21:06:22.882Z,94.40
2018-12-29T21:09:10.608Z,94.20
2018-12-29T21:11:58.330Z,94.30
2018-12-29T21:14:45.999Z,94.40
2018-12-29T21:17:34.083Z,94.50
2018-12-29T21:20:22.281Z,94.40
2018-12-29T21:23:10.351Z,94.40
2018-12-29T21:25:58.714Z,94.30
2018-12-29T21:28:46.266Z,94.40
2018-12-29T21:31:33.886Z,94.30
2018-12-29T21:34:21.487Z,94.50
2018-12-29T21:37:09.550Z,94.50
2018-12-29T21:39:57.329Z,94.40
2018-12-29T21:42:45.270Z,94.40
2018-12-29T21:45:33.337Z,94.50
2018-12-29T21:48:21.169Z,94.60
2018-12-29T21:51:09.104Z,94.50
2018-12-29T21:53:57.092Z,94.40
2018-12-29T21:56:45.054Z,94.40
2018-12-29T21:59:33.087Z,94.30
2018-12-29T22:02:21.204Z,94.30
2018-12-29T22:05:08.845Z,94.20
2018-12-29T22:07:56.616Z,94.20
2018-12-29T22:10:44.427Z,94.20
2018-12-29T22:13:32.604Z,94.30
2018-12-29T22:16:20.582Z,94.30
2018-12-29T22:19:08.086Z,94.30
2018-12-29T22:21:55.679Z,94.20
2018-12-29T22:24:43.484Z,94.40
2018-12-29T22:27:31.233Z,94.50
2018-12-29T22:30:18.879Z,94.30
2018-12-29T22:33:06.745Z,94.20
2018-12-29T22:35:54.558Z,94.10
2018-12-29T22:38:43.112Z,94.00
2018-12-29T22:41:30.777Z,94.10
2018-12-29T22:44:19.029Z,94.40
2018-12-29T22:47:06.664Z,94.70
2018-12-29T22:49:54.535Z,94.70
2018-12-29T22:52:42.511Z,95.00
2018-12-29T22:55:30.567Z,95.10
2018-12-29T22:58:18.264Z,95.20
2018-12-29T23:01:06.130Z,95.10
2018-12-29T23:03:54.248Z,95.20
2018-12-29T23:06:41.997Z,95.30
2018-12-29T23:09:29.641Z,95.30
2018-12-29T23:12:18.413Z,95.40
2018-12-29T23:15:06.145Z,95.20
2018-12-29T23:17:53.772Z,95.30
2018-12-29T23:20:48.911Z,95.60
2018-12-29T23:23:30.855Z,95.50
2018-12-29T23:26:19.207Z,95.50
2018-12-29T23:29:07.193Z,95.70
2018-12-29T23:31:54.740Z,95.90
2018-12-29T23:34:42.723Z,96.20
2018-12-29T23:37:30.597Z,95.90
2018-12-29T23:40:19.025Z,95.70
2018-12-29T23:43:06.894Z,95.70
2018-12-29T23:45:55.113Z,95.80
2018-12-29T23:48:42.833Z,95.80
2018-12-29T23:51:30.548Z,96.00
2018-12-29T23:54:17.833Z,95.80
2018-12-29T23:57:05.596Z,95.80
2018-12-29T23:59:53.237Z,96.00
